Latest Weather Observations for Port Hedland

IDW60801

Issued at 10:53 pm WST Saturday 23 January 2021 (issued every 10 minutes, with the page automatically refreshed every 10 minutes)

About weather observations | Map of weather stations | Latest weather observations for WA | Other Formats
Station Details ID: 004032 Name: PORT HEDLAND AIRPORT Lat: -20.37 Lon: 118.63 Height: 6.4 m
Data from the previous 72 hours. | See also: Recent months at Port Hedland
Date/Time
WST
Temp
°C
App
Temp
°C
Dew
Point
°C
Rel
Hum
%
Delta-T
°C
Wind Press
QNH
hPa
Press
MSL
hPa
Rain since
9am
mm
Dir  Spd
km/h
Gust
km/h
Spd
kts
Gust
kts
23/10:30pm 30.1 31.2 24.9 73 3.6 W 28 39 15 21 1003.4 1003.3 0.0
23/10:00pm 30.1 31.2 24.9 73 3.7 W 28 37 15 20 1003.6 1003.5 0.0
23/09:30pm 30.4 30.5 24.8 72 3.9 W 33 43 18 23 1003.5 1003.4 0.0
23/09:09pm 30.7 31.2 24.6 70 4.3 W 30 48 16 26 1003.3 1003.2 0.0
23/09:00pm 30.8 30.8 24.4 68 4.5 W 32 43 17 23 1003.3 1003.2 0.0
23/08:30pm 30.8 31.2 23.7 66 4.9 WNW 28 35 15 19 1003.1 1003.0 0.0
23/08:00pm 30.8 31.3 24.0 67 4.7 WNW 28 35 15 19 1003.0 1002.9 0.0
23/07:30pm 30.8 30.7 24.2 68 4.6 WNW 32 43 17 23 1003.0 1002.9 0.0
23/07:00pm 30.8 30.8 24.7 70 4.3 WNW 33 43 18 23 1002.8 1002.7 0.0
23/06:30pm 31.4 31.7 24.3 66 5.0 WNW 30 37 16 20 1002.6 1002.5 0.0
23/06:00pm 32.0 31.0 24.3 63 5.4 WNW 37 48 20 26 1002.5 1002.4 0.0
23/05:30pm 33.0 31.6 24.2 60 6.2 WNW 39 48 21 26 1002.2 1002.1 0.0
23/05:00pm 33.8 32.5 23.8 56 7.0 WNW 37 48 20 26 1001.7 1001.6 0.0
23/04:30pm 34.5 33.9 24.4 55 7.1 NW 35 44 19 24 1001.3 1001.2 0.0
23/04:00pm 34.7 33.7 23.7 52 7.7 NW 35 43 19 23 1001.2 1001.1 0.0
23/03:30pm 35.4 34.3 23.4 50 8.4 NW 35 44 19 24 1001.2 1001.1 0.0
23/03:00pm 35.1 34.0 22.8 49 8.5 NW 33 43 18 23 1001.4 1001.3 0.0
23/02:30pm 35.4 35.0 23.0 48 8.6 NW 30 39 16 21 1001.5 1001.4 0.0
23/02:00pm 35.0 34.4 23.3 50 8.2 NW 32 39 17 21 1001.7 1001.6 0.0
23/01:30pm 35.0 35.9 24.6 55 7.3 NW 28 39 15 21 1001.9 1001.8 0.0
23/01:00pm 34.0 34.2 23.4 54 7.4 NW 28 33 15 18 1002.0 1001.9 0.0
23/12:30pm 35.0 36.5 23.7 52 7.9 NW 22 33 12 18 1002.1 1002.0 0.0
23/12:00pm 34.4 35.9 23.7 53 7.5 NW 22 33 12 18 1002.4 1002.3 0.0
23/11:30am 34.7 36.8 23.7 52 7.7 NNW 19 30 10 16 1002.8 1002.7 0.0
23/11:00am 33.7 36.0 23.4 55 7.2 NNW 17 26 9 14 1003.1 1003.0 0.0
23/10:30am 33.0 35.8 23.0 55 6.9 NNW 13 24 7 13 1003.4 1003.3 0.0
23/10:00am 32.3 35.0 23.5 59 6.1 NNW 15 24 8 13 1003.6 1003.5 0.0
23/09:30am 32.2 36.2 23.7 61 5.9 NNW 9 17 5 9 1003.8 1003.7 0.0
23/09:00am 31.8 35.3 22.2 56 6.6 NNW 7 11 4 6 1003.7 1003.6 0.8
23/08:30am 31.9 34.4 21.1 52 7.2 ENE 9 13 5 7 1003.6 1003.5 0.8
23/08:00am 31.0 33.4 20.9 55 6.8 ESE 9 13 5 7 1003.5 1003.4 0.6
23/07:30am 29.9 31.5 20.7 57 6.1 ESE 13 17 7 9 1003.4 1003.3 0.6
23/07:00am 28.9 31.4 21.7 65 4.8 ESE 11 15 6 8 1003.1 1003.0 0.6
23/06:30am 27.6 32.8 22.8 75 3.3 CALM 0 0 0 0 1002.8 1002.7 0.6
23/06:00am 26.7 32.0 23.0 80 2.5 CALM 0 0 0 0 1002.4 1002.3 0.6
23/05:30am 26.6 32.0 23.3 82 2.3 CALM 0 6 0 3 1002.0 1001.9 0.6
23/05:00am 26.3 31.9 23.6 85 1.9 CALM 0 0 0 0 1001.5 1001.4 0.6
23/04:30am 26.4 32.1 23.7 85 1.9 CALM 0 0 0 0 1001.2 1001.1 0.6
23/04:00am 26.7 31.2 23.6 83 2.1 SSW 6 7 3 4 1001.2 1001.1 0.6
23/03:30am 26.2 30.8 24.1 88 1.4 SW 7 9 4 5 1001.4 1001.3 0.6
23/03:00am 26.2 30.4 24.1 88 1.5 SW 9 11 5 6 1001.5 1001.4 0.6
23/02:30am 26.6 29.9 23.9 85 1.9 SW 13 17 7 9 1001.5 1001.4 0.6
23/02:00am 26.6 31.2 24.8 90 1.3 WSW 9 13 5 7 1001.5 1001.4 0.6
23/01:30am 26.8 31.0 24.8 89 1.4 W 11 13 6 7 1001.4 1001.3 0.6
23/01:00am 27.3 32.8 26.1 93 0.9 WNW 9 13 5 7 1001.5 1001.4 0.6
23/12:30am 27.8 33.3 25.6 88 1.5 SW 7 9 4 5 1001.7 1001.6 0.6
23/12:00am 28.3 33.1 25.1 83 2.3 S 9 13 5 7 1002.1 1002.0 0.6
 
Date/Time
WST
Temp
°C
App
Temp
°C
Dew
Point
°C
Rel
Hum
%
Delta-T
°C
Wind Press
QNH
hPa
Press
MSL
hPa
Rain since
9am
mm
Dir  Spd
km/h
Gust
km/h
Spd
kts
Gust
kts
22/11:30pm 28.2 32.4 24.8 82 2.4 SSW 11 13 6 7 1002.1 1002.0 0.6
22/11:00pm 28.7 33.0 24.9 80 2.7 SSW 11 13 6 7 1002.6 1002.5 0.6
22/10:30pm 28.6 33.7 25.0 81 2.5 SSW 7 9 4 5 1002.8 1002.7 0.6
22/10:00pm 27.8 32.4 25.4 87 1.7 SSW 11 15 6 8 1002.9 1002.8 0.6
22/09:30pm 27.3 31.3 25.1 88 1.5 SW 13 19 7 10 1002.7 1002.6 0.6
22/09:00pm 27.8 30.1 25.6 88 1.6 SW 24 35 13 19 1002.9 1002.8 0.2
22/08:30pm 30.5 32.9 24.6 70 4.1 SW 20 30 11 16 1002.7 1002.6 0.0
22/08:00pm 31.2 33.6 24.3 66 4.8 W 19 24 10 13 1002.4 1002.3 0.0
22/07:30pm 31.6 34.0 24.2 65 5.2 W 19 26 10 14 1002.1 1002.0 0.0
22/07:00pm 32.0 34.0 23.0 59 6.2 WNW 17 22 9 12 1001.5 1001.4 0.0
22/06:30pm 32.6 35.8 22.4 55 7.0 NNW 9 17 5 9 1001.2 1001.1 0.0
22/06:00pm 34.0 32.9 17.2 36 10.8 SSE 19 24 10 13 1000.6 1000.5 0.0
22/05:30pm 34.5 32.8 17.3 36 11.0 SSE 22 32 12 17 1000.1 1000.0 0.0
22/05:00pm 34.9 31.9 16.7 34 11.7 SSE 28 35 15 19 999.8 999.7 0.0
22/04:30pm 35.5 32.5 16.8 33 12.0 SSE 28 43 15 23 999.7 999.6 0.0
22/04:00pm 35.7 32.2 16.4 31 12.3 SSE 30 43 16 23 999.8 999.7 0.0
22/03:32pm 36.1 31.4 15.8 30 12.8 SSE 35 54 19 29 1000.0 999.9 0.0
22/03:30pm 36.1 31.8 15.8 30 12.8 SSE 33 50 18 27 1000.0 999.9 0.0
22/03:26pm 36.4 32.3 16.0 29 12.9 SSE 32 50 17 27 1000.0 999.9 0.0
22/03:00pm 36.2 32.3 16.4 31 12.7 SSE 32 48 17 26 1000.2 1000.1 0.0
22/02:36pm 36.2 31.9 15.9 30 12.9 SSE 33 50 18 27 1000.7 1000.6 0.0
22/02:30pm 36.2 32.3 16.9 32 12.4 S 33 50 18 27 1000.9 1000.8 0.0
22/02:00pm 34.8 30.4 16.6 33 11.6 SSE 35 54 19 29 1001.2 1001.1 0.0
22/01:30pm 34.6 30.3 16.9 35 11.3 SSE 35 70 19 38 1001.7 1001.6 0.0
22/01:25pm 35.0 30.7 16.8 34 11.6 SE 35 70 19 38 1001.6 1001.5 0.0
22/01:01pm 34.6 30.8 17.3 35 11.1 SSE 33 52 18 28 1002.3 1002.2 0.0
22/01:00pm 34.5 30.5 16.8 34 11.3 SSE 33 50 18 27 1002.4 1002.3 0.0
22/12:42pm 34.0 30.6 17.7 38 10.5 SE 32 50 17 27 1002.7 1002.6 0.0
22/12:30pm 34.3 30.6 17.5 36 10.8 SSE 33 48 18 26 1002.9 1002.8 0.0
22/12:00pm 32.9 29.6 17.9 41 9.7 SSE 32 44 17 24 1003.5 1003.4 0.0
22/11:30am 32.9 30.3 17.9 41 9.7 SE 28 43 15 23 1004.0 1003.9 0.0
22/11:00am 31.4 29.6 18.7 46 8.3 SE 26 35 14 19 1004.6 1004.5 0.0
22/10:30am 30.8 29.4 18.8 48 7.8 SE 24 35 13 19 1004.9 1004.8 0.0
22/10:00am 30.2 28.3 18.6 49 7.5 SE 26 41 14 22 1004.9 1004.8 0.0
22/09:30am 30.6 28.9 19.0 50 7.5 ESE 26 32 14 17 1004.9 1004.8 0.0
22/09:00am 30.7 28.9 18.8 49 7.7 SE 26 39 14 21 1004.7 1004.6 0.0
22/08:30am 30.1 27.4 18.5 49 7.5 SE 30 41 16 22 1004.5 1004.4 0.0
22/08:00am 29.4 27.1 18.5 52 7.0 SE 28 41 15 22 1004.6 1004.5 0.0
22/07:30am 29.0 28.2 18.4 52 6.8 SE 20 30 11 16 1005.0 1004.9 0.0
22/07:00am 28.4 29.2 19.1 57 6.0 SE 13 20 7 11 1004.8 1004.7 0.0
22/06:30am 28.1 28.5 19.1 58 5.8 SE 15 20 8 11 1004.8 1004.7 0.0
22/06:00am 28.5 26.4 18.9 56 6.2 SE 28 39 15 21 1004.0 1003.9 0.0
22/05:59am 28.5 26.4 18.9 56 6.2 SE 28 39 15 21 1004.0 1003.9 0.0
22/05:30am 27.8 30.0 21.8 70 4.0 SSE 13 17 7 9 1003.9 1003.8 0.0
22/05:00am 28.0 29.8 21.1 66 4.6 SSE 13 17 7 9 1004.0 1003.9 0.0
22/04:30am 28.4 28.8 19.9 60 5.6 SE 17 20 9 11 1003.9 1003.8 0.0
22/04:00am 27.9 30.5 21.9 70 4.0 SSE 11 17 6 9 1003.8 1003.7 0.0
22/03:30am 27.2 29.8 22.6 76 3.1 S 13 17 7 9 1003.5 1003.4 0.0
22/03:00am 27.0 29.6 22.6 77 3.0 S 13 17 7 9 1003.8 1003.7 0.0
22/02:30am 26.9 29.8 22.5 77 3.0 SW 11 15 6 8 1003.9 1003.8 0.0
22/02:00am 27.2 29.7 22.4 75 3.2 SSW 13 17 7 9 1004.4 1004.3 0.0
22/01:30am 27.1 29.4 22.1 74 3.4 SSW 13 19 7 10 1004.8 1004.7 0.0
22/01:00am 28.4 30.9 22.4 70 4.1 SSW 13 24 7 13 1004.7 1004.6 0.0
22/12:30am 30.3 31.5 19.0 50 7.3 S 11 17 6 9 1005.0 1004.9 0.0
22/12:00am 30.3 31.8 19.0 50 7.4 SE 9 13 5 7 1005.4 1005.3 0.0
 
Date/Time
WST
Temp
°C
App
Temp
°C
Dew
Point
°C
Rel
Hum
%
Delta-T
°C
Wind Press
QNH
hPa
Press
MSL
hPa
Rain since
9am
mm
Dir  Spd
km/h
Gust
km/h
Spd
kts
Gust
kts
21/11:30pm 30.7 30.9 19.4 51 7.4 E 17 24 9 13 1006.1 1006.0 0.0
21/11:00pm 30.6 33.9 22.5 62 5.5 SE 9 13 5 7 1006.2 1006.1 0.0
21/10:30pm 30.7 33.9 22.3 61 5.7 SW 9 11 5 6 1006.4 1006.3 0.0
21/10:00pm 30.8 33.9 22.1 59 5.9 SW 9 11 5 6 1006.0 1005.9 0.0
21/09:30pm 30.9 35.7 22.2 59 5.9 CALM 0 7 0 4 1006.1 1006.0 0.0
21/09:00pm 30.9 35.9 22.5 61 5.7 CALM 0 0 0 0 1005.7 1005.6 0.0
21/08:30pm 31.1 33.8 22.1 58 6.1 NE 11 13 6 7 1005.1 1005.0 0.0
21/08:00pm 31.3 32.8 22.0 57 6.3 NE 17 20 9 11 1004.6 1004.5 0.0
21/07:30pm 31.5 33.2 23.1 61 5.8 NE 19 24 10 13 1004.5 1004.4 0.0
21/07:00pm 31.7 32.4 23.0 60 6.0 NE 24 30 13 16 1004.5 1004.4 0.0
21/06:30pm 32.0 32.0 23.8 62 5.7 NNE 30 35 16 19 1004.1 1004.0 0.0
21/06:00pm 32.3 33.0 24.3 62 5.6 NNE 28 35 15 19 1003.9 1003.8 0.0
21/05:30pm 32.5 33.3 24.5 62 5.6 NNE 28 35 15 19 1003.7 1003.6 0.0
21/05:00pm 33.3 35.4 25.3 63 5.7 NNE 24 32 13 17 1003.4 1003.3 0.0
21/04:30pm 33.0 35.0 24.5 61 6.0 NNE 22 28 12 15 1003.6 1003.5 0.0
21/04:00pm 33.0 35.7 25.0 63 5.7 NNE 20 26 11 14 1003.9 1003.8 0.0
21/03:30pm 33.3 35.6 25.6 64 5.5 NNE 24 28 13 15 1004.0 1003.9 0.0
21/03:00pm 33.7 36.2 25.9 63 5.6 NNE 24 30 13 16 1004.0 1003.9 0.0
21/02:30pm 32.4 34.4 25.7 68 4.8 NNE 26 32 14 17 1004.5 1004.4 0.0
21/02:00pm 32.3 34.0 25.9 69 4.6 N 28 37 15 20 1004.9 1004.8 0.0
21/01:30pm 32.2 33.7 26.7 72 4.0 NNE 32 43 17 23 1005.1 1005.0 0.0
21/01:00pm 32.8 33.3 26.6 70 4.5 NNE 37 46 20 25 1005.4 1005.3 0.0
21/12:30pm 35.1 35.1 23.8 52 7.9 N 30 39 16 21 1005.6 1005.5 0.0
21/12:00pm 35.6 34.9 21.8 44 9.5 N 28 39 15 21 1005.7 1005.6 0.0
21/11:30am 36.3 36.5 23.5 47 8.9 N 28 37 15 20 1006.0 1005.9 0.0
21/11:00am 35.3 36.4 24.9 55 7.4 NNE 28 35 15 19 1006.3 1006.2 0.0
21/10:30am 34.8 36.3 24.4 54 7.3 NNE 24 32 13 17 1006.5 1006.4 0.0
21/10:00am 35.2 36.4 24.5 54 7.6 NE 26 33 14 18 1006.9 1006.8 0.0
21/09:30am 35.7 37.7 24.6 52 7.9 NNE 22 32 12 17 1006.9 1006.8 0.0
21/09:00am 34.7 35.5 23.1 51 8.1 NNE 24 32 13 17 1006.9 1006.8 0.0
21/08:30am 34.4 34.8 23.1 51 7.8 NNE 26 33 14 18 1006.6 1006.5 0.0
21/08:00am 34.4 35.0 22.8 51 8.0 NNE 24 30 13 16 1006.3 1006.2 0.0
21/07:30am 33.4 35.3 23.7 56 6.8 NNE 20 26 11 14 1006.2 1006.1 0.0
21/07:00am 32.5 34.2 24.0 61 5.9 NE 22 30 12 16 1006.0 1005.9 0.0
21/06:30am 32.1 33.8 24.7 65 5.2 NE 24 28 13 15 1005.8 1005.7 0.0
21/06:00am 31.7 33.4 24.0 63 5.4 NNE 22 28 12 15 1005.6 1005.5 0.0
21/05:30am 31.9 33.6 24.0 63 5.5 NE 22 28 12 15 1005.4 1005.3 0.0
21/05:00am 31.8 33.5 24.7 66 5.0 NE 24 32 13 17 1005.1 1005.0 0.0
21/04:30am 31.7 34.6 25.1 68 4.7 NE 19 24 10 13 1004.9 1004.8 0.0
21/04:00am 31.5 35.1 25.6 71 4.2 NNE 17 20 9 11 1004.6 1004.5 0.0
21/03:30am 31.5 35.4 26.1 73 3.9 NNE 17 20 9 11 1004.8 1004.7 0.0
21/03:00am 30.7 35.5 26.8 80 2.8 NE 15 17 8 9 1004.9 1004.8 0.0
21/02:30am 30.1 34.4 26.7 82 2.4 NE 17 19 9 10 1005.2 1005.1 0.0
21/02:00am 27.7 32.1 25.1 86 1.8 ENE 11 13 6 7 1005.2 1005.1 0.0
21/01:30am 28.1 34.6 25.1 84 2.1 CALM 0 0 0 0 1005.3 1005.2 0.0
21/01:00am 28.9 34.4 25.3 81 2.5 SW 6 7 3 4 1005.2 1005.1 0.0
21/12:30am 29.3 35.1 26.1 83 2.3 WSW 7 9 4 5 1005.3 1005.2 0.0
21/12:00am 29.1 34.6 26.1 84 2.1 WSW 9 15 5 8 1005.7 1005.6 0.0
 
Date/Time
WST
Temp
°C
App
Temp
°C
Dew
Point
°C
Rel
Hum
%
Delta-T
°C
Wind Press
QNH
hPa
Press
MSL
hPa
Rain since
9am
mm
Dir  Spd
km/h
Gust
km/h
Spd
kts
Gust
kts
20/11:30pm 29.6 35.6 26.4 83 2.3 WSW 7 9 4 5 1006.1 1006.0 0.0
20/11:00pm 30.3 35.5 26.9 82 2.5 WSW 13 17 7 9 1006.3 1006.2 0.0

Other formats

Comma delimited format used in spreadsheet applications
http://www.bom.gov.au/fwo/IDW60801/IDW60801.94312.axf

JavaScript Object Notation format (JSON) in row-major order
http://www.bom.gov.au/fwo/IDW60801/IDW60801.94312.json

Data quality

Most of these data are generated automatically and are frequently updated. Quality checks on data are not normally performed. It is possible for incorrect values to appear. Refer to information at About Latest Weather Observations and please check the disclaimer before using these data.